sensor_id;sensor_type;location;lat;lon;timestamp;pressure;altitude;pressure_sealevel;temperature;humidity
30714;BME280;17465;47.934;33.430;2023-05-20T00:00:51;57266.89;;;-140.43;44.99
30714;BME280;17465;47.934;33.430;2023-05-20T00:03:22;57227.70;;;-140.43;44.36
30714;BME280;17465;47.934;33.430;2023-05-20T00:05:57;57254.18;;;-140.43;44.24
30714;BME280;17465;47.934;33.430;2023-05-20T00:08:24;57238.29;;;-140.43;44.33
30714;BME280;17465;47.934;33.430;2023-05-20T00:10:55;57256.30;;;-140.43;44.87
30714;BME280;17465;47.934;33.430;2023-05-20T00:13:25;57236.18;;;-140.43;45.24
30714;BME280;17465;47.934;33.430;2023-05-20T00:15:56;57243.59;;;-140.43;46.10
30714;BME280;17465;47.934;33.430;2023-05-20T00:18:26;57253.12;;;-140.43;45.14
30714;BME280;17465;47.934;33.430;2023-05-20T00:20:57;57224.53;;;-140.43;43.96
30714;BME280;17465;47.934;33.430;2023-05-20T00:23:28;57224.53;;;-140.43;43.96
30714;BME280;17465;47.934;33.430;2023-05-20T00:26:02;57229.82;;;-140.43;44.79
30714;BME280;17465;47.934;33.430;2023-05-20T00:28:33;57219.23;;;-140.43;44.65
30714;BME280;17465;47.934;33.430;2023-05-20T00:31:04;57209.70;;;-140.43;44.71
30714;BME280;17465;47.934;33.430;2023-05-20T00:33:36;57209.70;;;-140.43;44.71
30714;BME280;17465;47.934;33.430;2023-05-20T00:36:07;57205.46;;;-140.43;45.06
30714;BME280;17465;47.934;33.430;2023-05-20T00:38:38;57205.46;;;-140.43;45.06
30714;BME280;17465;47.934;33.430;2023-05-20T00:41:09;57217.11;;;-140.43;45.08
30714;BME280;17465;47.934;33.430;2023-05-20T00:43:41;57202.29;;;-140.43;46.22
30714;BME280;17465;47.934;33.430;2023-05-20T00:46:12;57204.41;;;-140.43;46.80
30714;BME280;17465;47.934;33.430;2023-05-20T00:48:43;57240.41;;;-140.43;46.66
30714;BME280;17465;47.934;33.430;2023-05-20T00:51:14;57240.41;;;-140.43;46.66
30714;BME280;17465;47.934;33.430;2023-05-20T00:53:44;57215.00;;;-140.43;46.31
30714;BME280;17465;47.934;33.430;2023-05-20T00:56:15;57253.12;;;-140.43;45.32
30714;BME280;17465;47.934;33.430;2023-05-20T00:58:48;57200.17;;;-140.43;46.96
30714;BME280;17465;47.934;33.430;2023-05-20T01:01:18;57221.35;;;-140.43;45.68
30714;BME280;17465;47.934;33.430;2023-05-20T01:03:49;57215.00;;;-140.43;45.50
30714;BME280;17465;47.934;33.430;2023-05-20T01:06:21;57233.00;;;-140.43;46.51
30714;BME280;17465;47.934;33.430;2023-05-20T01:08:52;57225.59;;;-140.43;46.91
30714;BME280;17465;47.934;33.430;2023-05-20T01:11:38;57219.23;;;-140.43;47.53
30714;BME280;17465;47.934;33.430;2023-05-20T01:14:07;57225.59;;;-140.43;46.92
30714;BME280;17465;47.934;33.430;2023-05-20T01:16:40;57206.52;;;-140.43;47.95
30714;BME280;17465;47.934;33.430;2023-05-20T01:19:20;57241.47;;;-140.43;46.83
30714;BME280;17465;47.934;33.430;2023-05-20T01:21:45;57211.82;;;-140.43;47.81
30714;BME280;17465;47.934;33.430;2023-05-20T01:24:16;57230.88;;;-140.43;47.73
30714;BME280;17465;47.934;33.430;2023-05-20T01:26:47;57216.05;;;-140.43;48.21
30714;BME280;17465;47.934;33.430;2023-05-20T01:29:17;57218.17;;;-140.43;47.71
30714;BME280;17465;47.934;33.430;2023-05-20T01:31:52;57199.11;;;-140.43;48.80
30714;BME280;17465;47.934;33.430;2023-05-20T01:34:24;57212.87;;;-140.43;48.92
30714;BME280;17465;47.934;33.430;2023-05-20T01:39:48;57221.35;;;-140.43;49.15
30714;BME280;17465;47.934;33.430;2023-05-20T01:42:25;57192.75;;;-140.43;48.56
30714;BME280;17465;47.934;33.430;2023-05-20T01:44:55;57231.94;;;-140.43;49.37
30714;BME280;17465;47.934;33.430;2023-05-20T01:47:28;57205.46;;;-140.43;50.11
30714;BME280;17465;47.934;33.430;2023-05-20T01:49:59;57202.29;;;-140.43;49.49
30714;BME280;17465;47.934;33.430;2023-05-20T01:52:29;57202.29;;;-140.43;49.49
30714;BME280;17465;47.934;33.430;2023-05-20T01:55:00;57230.88;;;-140.43;49.98
30714;BME280;17465;47.934;33.430;2023-05-20T01:57:33;57223.46;;;-140.43;49.13
30714;BME280;17465;47.934;33.430;2023-05-20T02:00:15;57221.35;;;-140.43;49.23
30714;BME280;17465;47.934;33.430;2023-05-20T02:02:46;57219.23;;;-140.43;48.21
30714;BME280;17465;47.934;33.430;2023-05-20T02:05:17;57219.23;;;-140.43;48.21
30714;BME280;17465;47.934;33.430;2023-05-20T02:07:47;57213.94;;;-140.43;50.17
30714;BME280;17465;47.934;33.430;2023-05-20T02:10:18;57213.94;;;-140.43;50.17
30714;BME280;17465;47.934;33.430;2023-05-20T02:12:48;57211.82;;;-140.43;49.22
30714;BME280;17465;47.934;33.430;2023-05-20T02:15:20;57215.00;;;-140.43;49.63
30714;BME280;17465;47.934;33.430;2023-05-20T02:17:50;57199.11;;;-140.43;49.70
30714;BME280;17465;47.934;33.430;2023-05-20T02:20:21;57226.64;;;-140.43;49.44
30714;BME280;17465;47.934;33.430;2023-05-20T02:22:51;57218.17;;;-140.43;50.08
30714;BME280;17465;47.934;33.430;2023-05-20T02:25:22;57205.46;;;-140.43;50.05
30714;BME280;17465;47.934;33.430;2023-05-20T02:27:53;57213.94;;;-140.43;52.59
30714;BME280;17465;47.934;33.430;2023-05-20T02:30:23;57231.94;;;-140.43;51.89
30714;BME280;17465;47.934;33.430;2023-05-20T02:32:56;57208.64;;;-140.43;51.72
30714;BME280;17465;47.934;33.430;2023-05-20T02:35:33;57223.46;;;-140.43;52.29
30714;BME280;17465;47.934;33.430;2023-05-20T02:38:15;57249.95;;;-140.43;52.40
30714;BME280;17465;47.934;33.430;2023-05-20T02:40:46;57195.93;;;-140.43;52.37
30714;BME280;17465;47.934;33.430;2023-05-20T02:43:16;57195.93;;;-140.43;52.37
30714;BME280;17465;47.934;33.430;2023-05-20T02:45:47;57218.17;;;-140.43;51.94
30714;BME280;17465;47.934;33.430;2023-05-20T02:48:17;57220.29;;;-140.43;51.98
30714;BME280;17465;47.934;33.430;2023-05-20T02:50:48;57207.58;;;-140.43;51.68
30714;BME280;17465;47.934;33.430;2023-05-20T02:53:18;57200.17;;;-140.43;51.22
30714;BME280;17465;47.934;33.430;2023-05-20T02:55:49;57242.53;;;-140.43;53.13
30714;BME280;17465;47.934;33.430;2023-05-20T02:58:19;57242.53;;;-140.43;53.13
30714;BME280;17465;47.934;33.430;2023-05-20T03:00:50;57215.00;;;-140.43;50.85
30714;BME280;17465;47.934;33.430;2023-05-20T03:03:20;57218.17;;;-140.43;51.24
30714;BME280;17465;47.934;33.430;2023-05-20T03:05:51;57209.70;;;-140.43;51.10
30714;BME280;17465;47.934;33.430;2023-05-20T03:08:22;57219.23;;;-140.43;50.80
30714;BME280;17465;47.934;33.430;2023-05-20T03:10:52;57227.70;;;-140.43;51.65
30714;BME280;17465;47.934;33.430;2023-05-20T03:13:23;57227.70;;;-140.43;51.65
30714;BME280;17465;47.934;33.430;2023-05-20T03:15:53;57252.06;;;-140.43;51.46
30714;BME280;17465;47.934;33.430;2023-05-20T03:18:24;57209.70;;;-140.43;53.42
30714;BME280;17465;47.934;33.430;2023-05-20T03:20:59;57222.41;;;-140.43;53.22
30714;BME280;17465;47.934;33.430;2023-05-20T03:23:30;57224.53;;;-140.43;54.28
30714;BME280;17465;47.934;33.430;2023-05-20T03:26:01;57215.00;;;-140.43;53.69
30714;BME280;17465;47.934;33.430;2023-05-20T03:28:31;57215.00;;;-140.43;53.69
30714;BME280;17465;47.934;33.430;2023-05-20T03:31:02;57269.00;;;-140.43;53.72
30714;BME280;17465;47.934;33.430;2023-05-20T03:33:34;57251.00;;;-140.43;54.66
30714;BME280;17465;47.934;33.430;2023-05-20T03:36:06;57251.00;;;-140.43;54.66
30714;BME280;17465;47.934;33.430;2023-05-20T03:38:37;57227.70;;;-140.43;53.88
30714;BME280;17465;47.934;33.430;2023-05-20T03:41:08;57227.70;;;-140.43;53.88
30714;BME280;17465;47.934;33.430;2023-05-20T03:43:38;57252.06;;;-140.43;53.94
30714;BME280;17465;47.934;33.430;2023-05-20T03:46:09;57225.59;;;-140.43;53.71
30714;BME280;17465;47.934;33.430;2023-05-20T03:48:39;57223.46;;;-140.43;54.17
30714;BME280;17465;47.934;33.430;2023-05-20T03:51:10;57223.46;;;-140.43;54.17
30714;BME280;17465;47.934;33.430;2023-05-20T03:53:40;57249.95;;;-140.43;54.06
30714;BME280;17465;47.934;33.430;2023-05-20T03:56:13;57249.95;;;-140.43;54.06
30714;BME280;17465;47.934;33.430;2023-05-20T03:58:44;57213.94;;;-140.43;50.44
30714;BME280;17465;47.934;33.430;2023-05-20T04:01:14;57242.53;;;-140.43;51.01
30714;BME280;17465;47.934;33.430;2023-05-20T04:03:44;57234.06;;;-140.43;50.89
30714;BME280;17465;47.934;33.430;2023-05-20T04:06:18;57256.30;;;-140.43;50.03
30714;BME280;17465;47.934;33.430;2023-05-20T04:08:54;57259.47;;;-140.43;50.14
30714;BME280;17465;47.934;33.430;2023-05-20T04:11:23;57254.18;;;-140.43;49.59
30714;BME280;17465;47.934;33.430;2023-05-20T04:13:54;57205.46;;;-140.43;50.31
30714;BME280;17465;47.934;33.430;2023-05-20T04:16:24;57256.30;;;-140.43;49.11
30714;BME280;17465;47.934;33.430;2023-05-20T04:18:59;57249.95;;;-140.43;47.05
30714;BME280;17465;47.934;33.430;2023-05-20T04:21:30;57249.95;;;-140.43;47.05
30714;BME280;17465;47.934;33.430;2023-05-20T04:24:01;57259.47;;;-140.43;47.10
30714;BME280;17465;47.934;33.430;2023-05-20T04:26:31;57271.13;;;-140.43;46.99
30714;BME280;17465;47.934;33.430;2023-05-20T04:29:07;57271.13;;;-140.43;46.99
30714;BME280;17465;47.934;33.430;2023-05-20T04:31:45;57265.83;;;-140.43;47.02
30714;BME280;17465;47.934;33.430;2023-05-20T04:34:28;57265.83;;;-140.43;47.02
30714;BME280;17465;47.934;33.430;2023-05-20T04:37:02;57290.18;;;-140.43;47.22
30714;BME280;17465;47.934;33.430;2023-05-20T04:39:35;57274.30;;;-140.43;45.82
30714;BME280;17465;47.934;33.430;2023-05-20T04:42:09;57274.30;;;-140.43;46.20
30714;BME280;17465;47.934;33.430;2023-05-20T04:44:39;57303.95;;;-140.43;45.65
30714;BME280;17465;47.934;33.430;2023-05-20T04:47:12;57305.01;;;-140.43;45.65
30714;BME280;17465;47.934;33.430;2023-05-20T04:49:51;57277.48;;;-140.43;45.87
30714;BME280;17465;47.934;33.430;2023-05-20T04:52:24;57277.48;;;-140.43;46.88
30714;BME280;17465;47.934;33.430;2023-05-20T04:57:32;57313.48;;;-140.43;45.58
30714;BME280;17465;47.934;33.430;2023-05-20T05:00:02;57313.48;;;-140.43;45.58
30714;BME280;17465;47.934;33.430;2023-05-20T05:02:39;57314.55;;;-140.43;44.48
30714;BME280;17465;47.934;33.430;2023-05-20T05:05:08;57320.90;;;-140.43;43.82
30714;BME280;17465;47.934;33.430;2023-05-20T05:07:39;57308.19;;;-140.43;45.87
30714;BME280;17465;47.934;33.430;2023-05-20T05:10:11;57321.96;;;-140.43;44.97
30714;BME280;17465;47.934;33.430;2023-05-20T05:12:45;57307.13;;;-140.43;44.01
30714;BME280;17465;47.934;33.430;2023-05-20T05:15:19;57332.55;;;-140.43;44.01
30714;BME280;17465;47.934;33.430;2023-05-20T05:17:52;57345.26;;;-140.43;44.97
30714;BME280;17465;47.934;33.430;2023-05-20T05:20:37;57345.26;;;-140.43;44.97
30714;BME280;17465;47.934;33.430;2023-05-20T05:23:10;57325.14;;;-140.43;44.91
30714;BME280;17465;47.934;33.430;2023-05-20T05:25:44;57382.32;;;-140.43;44.10
30714;BME280;17465;47.934;33.430;2023-05-20T05:28:20;57352.67;;;-140.43;44.21
30714;BME280;17465;47.934;33.430;2023-05-20T05:30:59;57352.67;;;-140.43;44.21
30714;BME280;17465;47.934;33.430;2023-05-20T05:33:43;57365.38;;;-140.43;43.66
30714;BME280;17465;47.934;33.430;2023-05-20T05:36:15;57367.50;;;-140.43;43.37
30714;BME280;17465;47.934;33.430;2023-05-20T05:38:50;57342.08;;;-140.43;43.04
30714;BME280;17465;47.934;33.430;2023-05-20T05:41:21;57342.08;;;-140.43;43.04
30714;BME280;17465;47.934;33.430;2023-05-20T05:43:54;57364.32;;;-140.43;42.80
30714;BME280;17465;47.934;33.430;2023-05-20T05:46:29;57364.32;;;-140.43;42.80
30714;BME280;17465;47.934;33.430;2023-05-20T05:49:02;57411.98;;;-140.43;40.18
30714;BME280;17465;47.934;33.430;2023-05-20T05:51:33;57411.98;;;-140.43;40.18
30714;BME280;17465;47.934;33.430;2023-05-20T05:54:07;57390.80;;;-140.43;40.83
30714;BME280;17465;47.934;33.430;2023-05-20T05:56:38;57433.16;;;-140.43;41.47
30714;BME280;17465;47.934;33.430;2023-05-20T05:59:09;57420.45;;;-140.43;40.38
30714;BME280;17465;47.934;33.430;2023-05-20T06:01:39;57445.87;;;-140.43;40.92
30714;BME280;17465;47.934;33.430;2023-05-20T06:04:11;57473.41;;;-140.43;39.83
30714;BME280;17465;47.934;33.430;2023-05-20T06:06:42;57473.41;;;-140.43;39.83
30714;BME280;17465;47.934;33.430;2023-05-20T06:09:12;57464.93;;;-140.43;36.83
30714;BME280;17465;47.934;33.430;2023-05-20T06:11:42;57464.93;;;-140.43;36.83
30714;BME280;17465;47.934;33.430;2023-05-20T06:14:14;57489.29;;;-140.43;39.78
30714;BME280;17465;47.934;33.430;2023-05-20T06:16:44;57474.46;;;-140.43;36.74
30714;BME280;17465;47.934;33.430;2023-05-20T06:19:20;57490.35;;;-140.43;39.35
30714;BME280;17465;47.934;33.430;2023-05-20T06:21:50;57490.35;;;-140.43;39.35
30714;BME280;17465;47.934;33.430;2023-05-20T06:24:21;57547.54;;;-140.43;37.90
30714;BME280;17465;47.934;33.430;2023-05-20T06:26:53;57547.54;;;-140.43;37.90
30714;BME280;17465;47.934;33.430;2023-05-20T06:29:23;57518.95;;;-140.43;37.09
30714;BME280;17465;47.934;33.430;2023-05-20T06:31:54;57590.97;;;-140.43;35.17
30714;BME280;17465;47.934;33.430;2023-05-20T06:34:24;57590.97;;;-140.43;35.17
30714;BME280;17465;47.934;33.430;2023-05-20T06:36:56;57620.62;;;-140.43;35.63
30714;BME280;17465;47.934;33.430;2023-05-20T06:39:28;57641.81;;;-140.43;33.48
30714;BME280;17465;47.934;33.430;2023-05-20T06:42:01;57610.03;;;-140.43;35.04
30714;BME280;17465;47.934;33.430;2023-05-20T06:44:34;57610.03;;;-140.43;35.04
30714;BME280;17465;47.934;33.430;2023-05-20T06:47:05;57657.70;;;-140.43;34.04
30714;BME280;17465;47.934;33.430;2023-05-20T06:49:38;57729.72;;;-140.43;31.77
30714;BME280;17465;47.934;33.430;2023-05-20T06:52:09;57729.72;;;-140.43;31.77
30714;BME280;17465;47.934;33.430;2023-05-20T06:54:43;57769.97;;;-140.43;32.47
30714;BME280;17465;47.934;33.430;2023-05-20T06:57:13;57769.97;;;-140.43;32.47
30714;BME280;17465;47.934;33.430;2023-05-20T06:59:43;57821.87;;;-140.43;30.74
30714;BME280;17465;47.934;33.430;2023-05-20T07:02:14;57821.87;;;-140.43;30.74
30714;BME280;17465;47.934;33.430;2023-05-20T07:04:44;57762.55;;;-140.43;31.71
30714;BME280;17465;47.934;33.430;2023-05-20T07:07:14;57807.04;;;-140.43;30.70
30714;BME280;17465;47.934;33.430;2023-05-20T07:09:48;57899.19;;;-140.43;30.95
30714;BME280;17465;47.934;33.430;2023-05-20T07:12:19;57899.19;;;-140.43;30.95
30714;BME280;17465;47.934;33.430;2023-05-20T07:14:49;57952.16;;;-140.43;28.84
30714;BME280;17465;47.934;33.430;2023-05-20T07:17:20;57952.16;;;-140.43;29.31
30714;BME280;17465;47.934;33.430;2023-05-20T07:19:50;57911.90;;;-140.43;29.88
30714;BME280;17465;47.934;33.430;2023-05-20T07:22:21;57911.90;;;-140.43;29.88
30714;BME280;17465;47.934;33.430;2023-05-20T07:24:52;57929.91;;;-140.43;30.21
30714;BME280;17465;47.934;33.430;2023-05-20T07:27:26;57996.64;;;-140.43;28.73
30714;BME280;17465;47.934;33.430;2023-05-20T07:29:57;57996.64;;;-140.43;28.73
30714;BME280;17465;47.934;33.430;2023-05-20T07:32:27;58017.83;;;-140.43;28.20
30714;BME280;17465;47.934;33.430;2023-05-20T07:34:57;58037.95;;;-140.43;26.77
30714;BME280;17465;47.934;33.430;2023-05-20T07:37:28;58037.95;;;-140.43;26.77
30714;BME280;17465;47.934;33.430;2023-05-20T07:40:01;58001.94;;;-140.43;26.23
30714;BME280;17465;47.934;33.430;2023-05-20T07:42:39;58041.13;;;-140.43;25.87
30714;BME280;17465;47.934;33.430;2023-05-20T07:45:09;58093.04;;;-140.43;25.42
30714;BME280;17465;47.934;33.430;2023-05-20T07:47:47;58085.62;;;-140.43;26.10
30714;BME280;17465;47.934;33.430;2023-05-20T07:50:15;58042.19;;;-140.43;26.58
30714;BME280;17465;47.934;33.430;2023-05-20T07:52:47;58083.50;;;-140.43;26.06
30714;BME280;17465;47.934;33.430;2023-05-20T07:55:19;58091.98;;;-140.43;24.73
30714;BME280;17465;47.934;33.430;2023-05-20T07:57:50;58091.98;;;-140.43;24.73
30714;BME280;17465;47.934;33.430;2023-05-20T08:00:24;58090.92;;;-140.43;25.36
30714;BME280;17465;47.934;33.430;2023-05-20T08:02:55;58090.92;;;-140.43;25.36
30714;BME280;17465;47.934;33.430;2023-05-20T08:05:30;58116.34;;;-140.43;25.58
30714;BME280;17465;47.934;33.430;2023-05-20T08:08:00;58132.23;;;-140.43;25.84
30714;BME280;17465;47.934;33.430;2023-05-20T08:10:47;58146.00;;;-140.43;24.04
30714;BME280;17465;47.934;33.430;2023-05-20T08:13:21;58115.29;;;-140.43;25.04
30714;BME280;17465;47.934;33.430;2023-05-20T08:15:53;58188.37;;;-140.43;24.17
30714;BME280;17465;47.934;33.430;2023-05-20T08:18:42;58128.00;;;-140.43;24.98
30714;BME280;17465;47.934;33.430;2023-05-20T08:21:13;58185.20;;;-140.43;24.55
30714;BME280;17465;47.934;33.430;2023-05-20T08:23:43;58182.02;;;-140.43;24.48
30714;BME280;17465;47.934;33.430;2023-05-20T08:26:17;58189.43;;;-140.43;24.03
30714;BME280;17465;47.934;33.430;2023-05-20T08:28:51;58231.81;;;-140.43;23.94
30714;BME280;17465;47.934;33.430;2023-05-20T08:31:21;58261.47;;;-140.43;23.15
30714;BME280;17465;47.934;33.430;2023-05-20T08:33:55;58172.48;;;-140.43;24.36
30714;BME280;17465;47.934;33.430;2023-05-20T08:36:28;58133.29;;;-140.43;24.43
30714;BME280;17465;47.934;33.430;2023-05-20T08:38:59;58001.94;;;-140.43;26.95
30714;BME280;17465;47.934;33.430;2023-05-20T08:41:31;58036.89;;;-140.43;25.78
30714;BME280;17465;47.934;33.430;2023-05-20T08:44:04;58036.89;;;-140.43;25.78
30714;BME280;17465;47.934;33.430;2023-05-20T08:46:37;58109.99;;;-140.43;24.04
30714;BME280;17465;47.934;33.430;2023-05-20T08:49:13;58180.96;;;-140.43;22.69
30714;BME280;17465;47.934;33.430;2023-05-20T08:54:46;58231.81;;;-140.43;24.50
30714;BME280;17465;47.934;33.430;2023-05-20T08:57:12;58231.81;;;-140.43;24.50
30714;BME280;17465;47.934;33.430;2023-05-20T08:59:45;58050.67;;;-140.43;23.80
30714;BME280;17465;47.934;33.430;2023-05-20T09:02:20;58050.67;;;-140.43;23.80
30714;BME280;17465;47.934;33.430;2023-05-20T09:04:58;58005.12;;;-140.43;25.56
30714;BME280;17465;47.934;33.430;2023-05-20T09:10:28;57977.57;;;-140.43;24.33
30714;BME280;17465;47.934;33.430;2023-05-20T09:13:07;57942.62;;;-140.43;25.04
30714;BME280;17465;47.934;33.430;2023-05-20T09:15:39;58040.07;;;-140.43;24.35
30714;BME280;17465;47.934;33.430;2023-05-20T09:18:17;58168.25;;;-140.43;23.37
30714;BME280;17465;47.934;33.430;2023-05-20T09:21:03;58168.25;;;-140.43;23.37
30714;BME280;17465;47.934;33.430;2023-05-20T09:23:35;58371.64;;;-140.43;23.83
30714;BME280;17465;47.934;33.430;2023-05-20T09:26:10;58321.85;;;-140.43;22.38
30714;BME280;17465;47.934;33.430;2023-05-20T09:28:41;58333.51;;;-140.43;22.41
30714;BME280;17465;47.934;33.430;2023-05-20T09:31:13;58333.51;;;-140.43;22.41
30714;BME280;17465;47.934;33.430;2023-05-20T09:36:39;58415.08;;;-140.43;21.58
30714;BME280;17465;47.934;33.430;2023-05-20T09:39:13;58415.08;;;-140.43;21.58
30714;BME280;17465;47.934;33.430;2023-05-20T09:41:56;58335.62;;;-140.43;23.51
30714;BME280;17465;47.934;33.430;2023-05-20T09:44:27;58250.88;;;-140.43;21.67
30714;BME280;17465;47.934;33.430;2023-05-20T09:46:58;58250.88;;;-140.43;21.67
30714;BME280;17465;47.934;33.430;2023-05-20T09:49:32;58093.04;;;-140.43;22.85
30714;BME280;17465;47.934;33.430;2023-05-20T09:52:04;58093.04;;;-140.43;22.85
30714;BME280;17465;47.934;33.430;2023-05-20T09:54:36;57998.76;;;-140.43;23.67
30714;BME280;17465;47.934;33.430;2023-05-20T09:57:06;58094.10;;;-140.43;23.16
30714;BME280;17465;47.934;33.430;2023-05-20T09:59:46;58094.10;;;-140.43;23.16
30714;BME280;17465;47.934;33.430;2023-05-20T10:02:19;58154.48;;;-140.43;21.96
30714;BME280;17465;47.934;33.430;2023-05-20T10:16:13;57964.86;;;-140.43;23.35
30714;BME280;17465;47.934;33.430;2023-05-20T10:21:39;57886.48;;;-140.43;25.56
30714;BME280;17465;47.934;33.430;2023-05-20T10:24:14;57954.27;;;-140.43;25.38
30714;BME280;17465;47.934;33.430;2023-05-20T10:26:55;58077.15;;;-140.43;23.19
30714;BME280;17465;47.934;33.430;2023-05-20T10:29:28;58215.92;;;-140.43;23.07
30714;BME280;17465;47.934;33.430;2023-05-20T10:31:58;58215.92;;;-140.43;23.07
30714;BME280;17465;47.934;33.430;2023-05-20T10:34:42;58195.79;;;-140.43;23.80
30714;BME280;17465;47.934;33.430;2023-05-20T10:37:02;58166.13;;;-140.43;23.69
30714;BME280;17465;47.934;33.430;2023-05-20T10:39:33;58239.22;;;-140.43;22.77
30714;BME280;17465;47.934;33.430;2023-05-20T10:42:07;58253.00;;;-140.43;21.83
30714;BME280;17465;47.934;33.430;2023-05-20T10:44:41;58253.00;;;-140.43;21.83
30714;BME280;17465;47.934;33.430;2023-05-20T10:47:12;58124.82;;;-140.43;21.76
30714;BME280;17465;47.934;33.430;2023-05-20T10:49:45;57972.28;;;-140.43;23.45
30714;BME280;17465;47.934;33.430;2023-05-20T10:52:20;57989.23;;;-140.43;25.22
30714;BME280;17465;47.934;33.430;2023-05-20T10:55:00;57994.52;;;-140.43;23.28
30714;BME280;17465;47.934;33.430;2023-05-20T10:57:35;58028.42;;;-140.43;23.72
30714;BME280;17465;47.934;33.430;2023-05-20T11:00:09;58028.42;;;-140.43;23.72
30714;BME280;17465;47.934;33.430;2023-05-20T11:05:40;58124.82;;;-140.43;24.96
30714;BME280;17465;47.934;33.430;2023-05-20T11:08:11;58219.10;;;-140.43;23.00
30714;BME280;17465;47.934;33.430;2023-05-20T11:10:46;58348.34;;;-140.43;21.73
30714;BME280;17465;47.934;33.430;2023-05-20T11:13:17;58404.48;;;-140.43;22.07
30714;BME280;17465;47.934;33.430;2023-05-20T11:15:54;58404.48;;;-140.43;22.07
30714;BME280;17465;47.934;33.430;2023-05-20T11:18:48;58424.61;;;-140.43;22.65
30714;BME280;17465;47.934;33.430;2023-05-20T11:21:18;58464.87;;;-140.43;20.66
30714;BME280;17465;47.934;33.430;2023-05-20T11:23:50;58421.43;;;-140.43;20.52
30714;BME280;17465;47.934;33.430;2023-05-20T11:26:21;58408.72;;;-140.43;22.12
30714;BME280;17465;47.934;33.430;2023-05-20T11:28:53;58477.58;;;-140.43;20.61
30714;BME280;17465;47.934;33.430;2023-05-20T11:31:27;58477.58;;;-140.43;20.61
30714;BME280;17465;47.934;33.430;2023-05-20T11:34:02;58331.39;;;-140.43;21.89
30714;BME280;17465;47.934;33.430;2023-05-20T11:36:39;58218.04;;;-140.43;20.96
30714;BME280;17465;47.934;33.430;2023-05-20T11:39:05;58311.26;;;-140.43;21.46
30714;BME280;17465;47.934;33.430;2023-05-20T11:41:36;58311.26;;;-140.43;21.46
30714;BME280;17465;47.934;33.430;2023-05-20T11:44:11;58398.13;;;-140.43;21.71
30714;BME280;17465;47.934;33.430;2023-05-20T11:46:58;58508.30;;;-140.43;21.27
30714;BME280;17465;47.934;33.430;2023-05-20T11:49:26;58389.65;;;-140.43;21.00
30714;BME280;17465;47.934;33.430;2023-05-20T11:51:59;58337.74;;;-140.43;20.37
30714;BME280;17465;47.934;33.430;2023-05-20T11:54:34;58372.70;;;-140.43;20.23
30714;BME280;17465;47.934;33.430;2023-05-20T11:57:06;58372.70;;;-140.43;20.43
30714;BME280;17465;47.934;33.430;2023-05-20T11:59:36;58394.95;;;-140.43;21.23
30714;BME280;17465;47.934;33.430;2023-05-20T12:02:07;58448.98;;;-140.43;21.53
30714;BME280;17465;47.934;33.430;2023-05-20T12:04:37;58448.98;;;-140.43;21.53
30714;BME280;17465;47.934;33.430;2023-05-20T12:07:08;58503.01;;;-140.43;20.35
30714;BME280;17465;47.934;33.430;2023-05-20T12:09:39;58384.36;;;-140.43;20.44
30714;BME280;17465;47.934;33.430;2023-05-20T12:12:09;58391.77;;;-140.43;20.08
30714;BME280;17465;47.934;33.430;2023-05-20T12:14:39;58378.00;;;-140.43;20.82
30714;BME280;17465;47.934;33.430;2023-05-20T12:17:13;58378.00;;;-140.43;20.19
30714;BME280;17465;47.934;33.430;2023-05-20T12:19:42;58357.87;;;-140.43;19.97
30714;BME280;17465;47.934;33.430;2023-05-20T12:22:12;58435.21;;;-140.43;19.85
30714;BME280;17465;47.934;33.430;2023-05-20T12:24:43;58435.21;;;-140.43;19.85
30714;BME280;17465;47.934;33.430;2023-05-20T12:27:14;58448.98;;;-140.43;20.97
30714;BME280;17465;47.934;33.430;2023-05-20T12:29:44;58448.98;;;-140.43;20.97
30714;BME280;17465;47.934;33.430;2023-05-20T12:32:14;58560.22;;;-140.43;19.73
30714;BME280;17465;47.934;33.430;2023-05-20T12:34:45;58560.22;;;-140.43;19.73
30714;BME280;17465;47.934;33.430;2023-05-20T12:37:16;58572.93;;;-140.43;19.82
30714;BME280;17465;47.934;33.430;2023-05-20T12:39:49;58503.01;;;-140.43;20.64
30714;BME280;17465;47.934;33.430;2023-05-20T12:42:19;58587.77;;;-140.43;18.89
30714;BME280;17465;47.934;33.430;2023-05-20T12:44:50;58551.74;;;-140.43;21.85
30714;BME280;17465;47.934;33.430;2023-05-20T12:47:23;58647.09;;;-140.43;19.35
30714;BME280;17465;47.934;33.430;2023-05-20T12:49:54;58647.09;;;-140.43;19.35
30714;BME280;17465;47.934;33.430;2023-05-20T12:52:29;58616.37;;;-140.43;19.73
30714;BME280;17465;47.934;33.430;2023-05-20T12:55:11;58469.11;;;-140.43;20.26
30714;BME280;17465;47.934;33.430;2023-05-20T12:58:07;58491.36;;;-140.43;20.29
30714;BME280;17465;47.934;33.430;2023-05-20T13:00:41;58540.09;;;-140.43;20.14
30714;BME280;17465;47.934;33.430;2023-05-20T13:07:10;58424.61;;;-140.43;19.88
30714;BME280;17465;47.934;33.430;2023-05-20T13:13:08;58426.73;;;-140.43;19.76
30714;BME280;17465;47.934;33.430;2023-05-20T13:18:35;55847.02;;;-140.43;19.87
30714;BME280;17465;47.934;33.430;2023-05-20T13:20:54;58542.21;;;-140.43;20.29
30714;BME280;17465;47.934;33.430;2023-05-20T13:23:24;58391.77;;;-140.43;19.55
30714;BME280;17465;47.934;33.430;2023-05-20T13:25:55;58391.77;;;-140.43;19.55
30714;BME280;17465;47.934;33.430;2023-05-20T13:28:29;58329.27;;;-140.43;20.04
30714;BME280;17465;47.934;33.430;2023-05-20T13:31:03;58390.71;;;-140.43;20.19
30714;BME280;17465;47.934;33.430;2023-05-20T13:33:36;58268.89;;;-140.43;20.43
30714;BME280;17465;47.934;33.430;2023-05-20T13:36:10;58268.89;;;-140.43;20.43
30714;BME280;17465;47.934;33.430;2023-05-20T13:38:45;58314.44;;;-140.43;21.08